sensor_id;sensor_type;location;lat;lon;timestamp;temperature;humidity
29431;DHT22;16404;49.902;10.074;2024-03-25T00:00:04;8.80;62.90
29431;DHT22;16404;49.902;10.074;2024-03-25T00:02:56;8.90;62.70
29431;DHT22;16404;49.902;10.074;2024-03-25T00:05:40;8.90;62.70
29431;DHT22;16404;49.902;10.074;2024-03-25T00:08:25;8.90;62.50
29431;DHT22;16404;49.902;10.074;2024-03-25T00:11:10;8.80;62.40
29431;DHT22;16404;49.902;10.074;2024-03-25T00:13:54;8.90;62.50
29431;DHT22;16404;49.902;10.074;2024-03-25T00:16:39;8.90;62.40
29431;DHT22;16404;49.902;10.074;2024-03-25T00:19:23;8.90;62.20
29431;DHT22;16404;49.902;10.074;2024-03-25T00:22:08;8.90;62.30
29431;DHT22;16404;49.902;10.074;2024-03-25T00:24:53;8.90;62.30
29431;DHT22;16404;49.902;10.074;2024-03-25T00:27:37;8.90;62.20
29431;DHT22;16404;49.902;10.074;2024-03-25T00:30:22;8.80;62.20
29431;DHT22;16404;49.902;10.074;2024-03-25T00:33:06;8.80;62.30
29431;DHT22;16404;49.902;10.074;2024-03-25T00:35:51;8.80;62.20
29431;DHT22;16404;49.902;10.074;2024-03-25T00:38:36;8.90;62.10
29431;DHT22;16404;49.902;10.074;2024-03-25T00:41:20;8.90;62.10
29431;DHT22;16404;49.902;10.074;2024-03-25T00:44:06;9.00;62.00
29431;DHT22;16404;49.902;10.074;2024-03-25T00:46:50;9.00;61.90
29431;DHT22;16404;49.902;10.074;2024-03-25T00:49:35;9.00;61.80
29431;DHT22;16404;49.902;10.074;2024-03-25T00:52:20;9.00;62.60
29431;DHT22;16404;49.902;10.074;2024-03-25T00:55:04;9.00;61.90
29431;DHT22;16404;49.902;10.074;2024-03-25T00:57:49;9.00;61.80
29431;DHT22;16404;49.902;10.074;2024-03-25T01:00:34;9.00;61.80
29431;DHT22;16404;49.902;10.074;2024-03-25T01:03:19;8.90;61.90
29431;DHT22;16404;49.902;10.074;2024-03-25T01:06:03;9.00;61.90
29431;DHT22;16404;49.902;10.074;2024-03-25T01:08:50;9.00;61.60
29431;DHT22;16404;49.902;10.074;2024-03-25T01:11:34;9.00;61.60
29431;DHT22;16404;49.902;10.074;2024-03-25T01:14:19;8.90;61.70
29431;DHT22;16404;49.902;10.074;2024-03-25T01:17:04;8.90;61.60
29431;DHT22;16404;49.902;10.074;2024-03-25T01:19:48;8.90;61.40
29431;DHT22;16404;49.902;10.074;2024-03-25T01:22:33;8.90;61.40
29431;DHT22;16404;49.902;10.074;2024-03-25T01:25:17;8.90;61.40
29431;DHT22;16404;49.902;10.074;2024-03-25T01:28:02;8.90;61.40
29431;DHT22;16404;49.902;10.074;2024-03-25T01:30:46;8.90;61.30
29431;DHT22;16404;49.902;10.074;2024-03-25T01:33:31;8.90;61.20
29431;DHT22;16404;49.902;10.074;2024-03-25T01:36:15;8.90;60.80
29431;DHT22;16404;49.902;10.074;2024-03-25T01:39:01;8.90;60.90
29431;DHT22;16404;49.902;10.074;2024-03-25T01:41:46;8.90;60.90
29431;DHT22;16404;49.902;10.074;2024-03-25T01:44:31;8.80;61.00
29431;DHT22;16404;49.902;10.074;2024-03-25T01:47:15;8.90;61.00
29431;DHT22;16404;49.902;10.074;2024-03-25T01:50:00;8.90;60.90
29431;DHT22;16404;49.902;10.074;2024-03-25T01:52:45;8.80;60.90
29431;DHT22;16404;49.902;10.074;2024-03-25T01:55:32;8.80;60.80
29431;DHT22;16404;49.902;10.074;2024-03-25T01:58:16;8.80;61.00
29431;DHT22;16404;49.902;10.074;2024-03-25T02:01:01;8.90;61.10
29431;DHT22;16404;49.902;10.074;2024-03-25T02:03:46;9.00;60.90
29431;DHT22;16404;49.902;10.074;2024-03-25T02:06:30;9.00;60.90
29431;DHT22;16404;49.902;10.074;2024-03-25T02:09:15;9.10;60.80
29431;DHT22;16404;49.902;10.074;2024-03-25T02:12:01;9.00;60.70
29431;DHT22;16404;49.902;10.074;2024-03-25T02:14:46;9.10;60.70
29431;DHT22;16404;49.902;10.074;2024-03-25T02:17:31;9.20;60.60
29431;DHT22;16404;49.902;10.074;2024-03-25T02:20:15;9.20;60.30
29431;DHT22;16404;49.902;10.074;2024-03-25T02:23:01;9.20;60.20
29431;DHT22;16404;49.902;10.074;2024-03-25T02:25:50;9.10;60.20
29431;DHT22;16404;49.902;10.074;2024-03-25T02:28:34;9.20;60.30
29431;DHT22;16404;49.902;10.074;2024-03-25T02:31:19;9.20;60.20
29431;DHT22;16404;49.902;10.074;2024-03-25T02:34:04;9.10;60.20
29431;DHT22;16404;49.902;10.074;2024-03-25T02:36:48;9.10;60.20
29431;DHT22;16404;49.902;10.074;2024-03-25T02:39:33;9.00;60.30
29431;DHT22;16404;49.902;10.074;2024-03-25T02:42:18;9.00;60.30
29431;DHT22;16404;49.902;10.074;2024-03-25T02:45:04;9.00;60.40
29431;DHT22;16404;49.902;10.074;2024-03-25T02:47:50;9.00;60.30
29431;DHT22;16404;49.902;10.074;2024-03-25T02:50:35;8.90;60.50
29431;DHT22;16404;49.902;10.074;2024-03-25T02:53:19;8.90;60.70
29431;DHT22;16404;49.902;10.074;2024-03-25T02:56:04;8.90;60.80
29431;DHT22;16404;49.902;10.074;2024-03-25T02:58:48;9.00;60.80
29431;DHT22;16404;49.902;10.074;2024-03-25T03:01:33;9.00;60.90
29431;DHT22;16404;49.902;10.074;2024-03-25T03:04:18;9.00;60.80
29431;DHT22;16404;49.902;10.074;2024-03-25T03:07:02;9.00;60.60
29431;DHT22;16404;49.902;10.074;2024-03-25T03:09:47;9.00;60.40
29431;DHT22;16404;49.902;10.074;2024-03-25T03:12:31;9.00;60.30
29431;DHT22;16404;49.902;10.074;2024-03-25T03:15:16;9.00;60.20
29431;DHT22;16404;49.902;10.074;2024-03-25T03:18:00;8.90;60.20
29431;DHT22;16404;49.902;10.074;2024-03-25T03:20:45;8.80;60.30
29431;DHT22;16404;49.902;10.074;2024-03-25T03:23:30;8.60;61.40
29431;DHT22;16404;49.902;10.074;2024-03-25T03:26:15;8.60;60.90
29431;DHT22;16404;49.902;10.074;2024-03-25T03:28:59;8.50;60.80
29431;DHT22;16404;49.902;10.074;2024-03-25T03:31:44;8.40;61.00
29431;DHT22;16404;49.902;10.074;2024-03-25T03:34:29;8.30;61.30
29431;DHT22;16404;49.902;10.074;2024-03-25T03:37:13;8.30;61.40
29431;DHT22;16404;49.902;10.074;2024-03-25T03:39:58;8.30;61.50
29431;DHT22;16404;49.902;10.074;2024-03-25T03:42:42;8.30;61.70
29431;DHT22;16404;49.902;10.074;2024-03-25T03:45:33;8.30;61.70
29431;DHT22;16404;49.902;10.074;2024-03-25T03:48:17;8.30;61.70
29431;DHT22;16404;49.902;10.074;2024-03-25T03:51:02;8.30;61.60
29431;DHT22;16404;49.902;10.074;2024-03-25T03:53:46;8.30;61.80
29431;DHT22;16404;49.902;10.074;2024-03-25T03:56:31;8.30;61.80
29431;DHT22;16404;49.902;10.074;2024-03-25T03:59:16;8.30;61.80
29431;DHT22;16404;49.902;10.074;2024-03-25T04:02:00;8.30;61.60
29431;DHT22;16404;49.902;10.074;2024-03-25T04:04:45;8.30;61.60
29431;DHT22;16404;49.902;10.074;2024-03-25T04:07:32;8.20;61.60
29431;DHT22;16404;49.902;10.074;2024-03-25T04:10:16;8.10;61.70
29431;DHT22;16404;49.902;10.074;2024-03-25T04:13:01;8.10;61.80
29431;DHT22;16404;49.902;10.074;2024-03-25T04:15:45;8.10;61.80
29431;DHT22;16404;49.902;10.074;2024-03-25T04:18:30;8.10;61.70
29431;DHT22;16404;49.902;10.074;2024-03-25T04:21:15;8.20;61.70
29431;DHT22;16404;49.902;10.074;2024-03-25T04:24:00;8.20;61.50
29431;DHT22;16404;49.902;10.074;2024-03-25T04:26:45;8.20;61.40
29431;DHT22;16404;49.902;10.074;2024-03-25T04:29:30;8.10;61.40
29431;DHT22;16404;49.902;10.074;2024-03-25T04:32:14;8.10;61.50
29431;DHT22;16404;49.902;10.074;2024-03-25T04:34:59;8.20;61.50
29431;DHT22;16404;49.902;10.074;2024-03-25T04:37:43;8.20;61.30
29431;DHT22;16404;49.902;10.074;2024-03-25T04:40:28;8.30;61.20
29431;DHT22;16404;49.902;10.074;2024-03-25T04:43:12;8.30;61.20
29431;DHT22;16404;49.902;10.074;2024-03-25T04:46:00;8.20;61.30
29431;DHT22;16404;49.902;10.074;2024-03-25T04:48:45;8.20;61.20
29431;DHT22;16404;49.902;10.074;2024-03-25T04:51:29;8.30;61.10
29431;DHT22;16404;49.902;10.074;2024-03-25T04:54:15;8.30;61.00
29431;DHT22;16404;49.902;10.074;2024-03-25T04:57:00;8.40;60.90
29431;DHT22;16404;49.902;10.074;2024-03-25T04:59:47;8.40;60.90
29431;DHT22;16404;49.902;10.074;2024-03-25T05:02:31;8.40;60.80
29431;DHT22;16404;49.902;10.074;2024-03-25T05:05:16;8.30;60.80
29431;DHT22;16404;49.902;10.074;2024-03-25T05:08:00;8.40;60.70
29431;DHT22;16404;49.902;10.074;2024-03-25T05:10:47;8.40;60.50
29431;DHT22;16404;49.902;10.074;2024-03-25T05:13:32;8.40;60.60
29431;DHT22;16404;49.902;10.074;2024-03-25T05:16:16;8.50;60.50
29431;DHT22;16404;49.902;10.074;2024-03-25T05:19:01;8.50;60.40
29431;DHT22;16404;49.902;10.074;2024-03-25T05:21:45;8.50;60.30
29431;DHT22;16404;49.902;10.074;2024-03-25T05:24:30;8.50;60.20
29431;DHT22;16404;49.902;10.074;2024-03-25T05:27:15;8.50;60.20
29431;DHT22;16404;49.902;10.074;2024-03-25T05:29:59;8.50;60.20
29431;DHT22;16404;49.902;10.074;2024-03-25T05:32:44;8.50;61.10
29431;DHT22;16404;49.902;10.074;2024-03-25T05:35:28;8.50;60.30
29431;DHT22;16404;49.902;10.074;2024-03-25T05:38:14;8.50;60.30
29431;DHT22;16404;49.902;10.074;2024-03-25T05:40:59;8.50;60.30
29431;DHT22;16404;49.902;10.074;2024-03-25T05:43:44;8.60;60.30
29431;DHT22;16404;49.902;10.074;2024-03-25T05:46:28;8.50;60.30
29431;DHT22;16404;49.902;10.074;2024-03-25T05:49:13;8.60;60.30
29431;DHT22;16404;49.902;10.074;2024-03-25T05:51:57;8.60;60.20
29431;DHT22;16404;49.902;10.074;2024-03-25T05:54:42;8.70;60.20
29431;DHT22;16404;49.902;10.074;2024-03-25T05:57:27;8.60;60.00
29431;DHT22;16404;49.902;10.074;2024-03-25T06:00:12;8.60;60.00
29431;DHT22;16404;49.902;10.074;2024-03-25T06:02:57;8.60;59.80
29431;DHT22;16404;49.902;10.074;2024-03-25T06:05:42;8.60;59.70
29431;DHT22;16404;49.902;10.074;2024-03-25T06:08:27;8.60;59.70
29431;DHT22;16404;49.902;10.074;2024-03-25T06:11:13;8.60;59.70
29431;DHT22;16404;49.902;10.074;2024-03-25T06:13:57;8.60;59.70
29431;DHT22;16404;49.902;10.074;2024-03-25T06:16:42;8.60;59.70
29431;DHT22;16404;49.902;10.074;2024-03-25T06:19:27;8.60;59.60
29431;DHT22;16404;49.902;10.074;2024-03-25T06:22:11;8.70;59.60
29431;DHT22;16404;49.902;10.074;2024-03-25T06:24:56;8.70;59.60
29431;DHT22;16404;49.902;10.074;2024-03-25T06:27:40;8.60;59.70
29431;DHT22;16404;49.902;10.074;2024-03-25T06:30:25;8.70;59.90
29431;DHT22;16404;49.902;10.074;2024-03-25T06:33:28;8.70;60.00
29431;DHT22;16404;49.902;10.074;2024-03-25T06:36:30;8.80;59.80
29431;DHT22;16404;49.902;10.074;2024-03-25T06:39:15;8.80;59.60
29431;DHT22;16404;49.902;10.074;2024-03-25T06:42:00;8.80;59.70
29431;DHT22;16404;49.902;10.074;2024-03-25T06:44:44;8.80;59.60
29431;DHT22;16404;49.902;10.074;2024-03-25T06:47:35;8.90;59.50
29431;DHT22;16404;49.902;10.074;2024-03-25T06:50:20;9.00;59.40
29431;DHT22;16404;49.902;10.074;2024-03-25T06:53:04;9.20;59.50
29431;DHT22;16404;49.902;10.074;2024-03-25T06:55:53;9.20;59.20
29431;DHT22;16404;49.902;10.074;2024-03-25T06:58:38;9.30;59.00
29431;DHT22;16404;49.902;10.074;2024-03-25T07:01:22;9.40;58.80
29431;DHT22;16404;49.902;10.074;2024-03-25T07:04:07;9.50;58.70
29431;DHT22;16404;49.902;10.074;2024-03-25T07:06:51;9.70;58.60
29431;DHT22;16404;49.902;10.074;2024-03-25T07:09:36;9.80;58.30
29431;DHT22;16404;49.902;10.074;2024-03-25T07:12:20;9.80;58.10
29431;DHT22;16404;49.902;10.074;2024-03-25T07:15:05;9.90;58.20
29431;DHT22;16404;49.902;10.074;2024-03-25T07:17:50;9.90;58.20
29431;DHT22;16404;49.902;10.074;2024-03-25T07:20:34;10.00;58.20
29431;DHT22;16404;49.902;10.074;2024-03-25T07:23:19;10.20;58.00
29431;DHT22;16404;49.902;10.074;2024-03-25T07:26:03;10.30;57.90
29431;DHT22;16404;49.902;10.074;2024-03-25T07:28:48;10.40;57.80
29431;DHT22;16404;49.902;10.074;2024-03-25T07:31:33;10.50;57.70
29431;DHT22;16404;49.902;10.074;2024-03-25T07:34:17;10.70;57.80
29431;DHT22;16404;49.902;10.074;2024-03-25T07:37:04;10.80;57.50
29431;DHT22;16404;49.902;10.074;2024-03-25T07:39:49;11.00;57.50
29431;DHT22;16404;49.902;10.074;2024-03-25T07:42:33;11.10;57.20
29431;DHT22;16404;49.902;10.074;2024-03-25T07:45:18;11.10;56.80
29431;DHT22;16404;49.902;10.074;2024-03-25T07:48:02;11.30;56.70
29431;DHT22;16404;49.902;10.074;2024-03-25T07:50:47;11.30;56.40
29431;DHT22;16404;49.902;10.074;2024-03-25T07:53:32;11.40;56.10
29431;DHT22;16404;49.902;10.074;2024-03-25T07:56:16;11.50;55.70
29431;DHT22;16404;49.902;10.074;2024-03-25T07:59:01;11.60;55.40
29431;DHT22;16404;49.902;10.074;2024-03-25T08:01:45;11.60;55.20
29431;DHT22;16404;49.902;10.074;2024-03-25T08:04:30;11.70;55.10
29431;DHT22;16404;49.902;10.074;2024-03-25T08:07:15;11.80;55.00
29431;DHT22;16404;49.902;10.074;2024-03-25T08:09:59;11.80;54.80
29431;DHT22;16404;49.902;10.074;2024-03-25T08:12:44;11.80;54.90
29431;DHT22;16404;49.902;10.074;2024-03-25T08:15:28;11.90;54.70
29431;DHT22;16404;49.902;10.074;2024-03-25T08:18:13;11.90;54.50
29431;DHT22;16404;49.902;10.074;2024-03-25T08:20:58;11.90;54.40
29431;DHT22;16404;49.902;10.074;2024-03-25T08:23:46;12.00;54.50
29431;DHT22;16404;49.902;10.074;2024-03-25T08:26:30;12.00;54.10
29431;DHT22;16404;49.902;10.074;2024-03-25T08:29:15;12.00;54.00
29431;DHT22;16404;49.902;10.074;2024-03-25T08:31:59;12.00;54.00
29431;DHT22;16404;49.902;10.074;2024-03-25T08:34:44;11.90;54.00
29431;DHT22;16404;49.902;10.074;2024-03-25T08:37:29;12.00;53.80
29431;DHT22;16404;49.902;10.074;2024-03-25T08:40:13;12.00;53.90
29431;DHT22;16404;49.902;10.074;2024-03-25T08:42:58;12.10;53.60
29431;DHT22;16404;49.902;10.074;2024-03-25T08:45:46;12.10;53.30
29431;DHT22;16404;49.902;10.074;2024-03-25T08:48:31;12.20;53.40
29431;DHT22;16404;49.902;10.074;2024-03-25T08:51:15;12.30;52.90
29431;DHT22;16404;49.902;10.074;2024-03-25T08:54:00;12.40;52.80
29431;DHT22;16404;49.902;10.074;2024-03-25T08:56:44;12.50;52.40
29431;DHT22;16404;49.902;10.074;2024-03-25T08:59:29;12.50;52.20
29431;DHT22;16404;49.902;10.074;2024-03-25T09:02:14;12.60;52.00
29431;DHT22;16404;49.902;10.074;2024-03-25T09:04:58;12.70;51.50
29431;DHT22;16404;49.902;10.074;2024-03-25T09:07:53;12.80;50.80
29431;DHT22;16404;49.902;10.074;2024-03-25T09:10:38;12.90;50.20
29431;DHT22;16404;49.902;10.074;2024-03-25T09:13:45;13.00;49.80
29431;DHT22;16404;49.902;10.074;2024-03-25T09:16:30;13.00;49.40
29431;DHT22;16404;49.902;10.074;2024-03-25T09:19:14;13.10;48.90
29431;DHT22;16404;49.902;10.074;2024-03-25T09:21:59;13.10;48.60
29431;DHT22;16404;49.902;10.074;2024-03-25T09:24:43;13.10;48.30
29431;DHT22;16404;49.902;10.074;2024-03-25T09:27:29;13.20;48.40
29431;DHT22;16404;49.902;10.074;2024-03-25T09:30:14;13.30;47.90
29431;DHT22;16404;49.902;10.074;2024-03-25T09:32:59;13.30;47.60
29431;DHT22;16404;49.902;10.074;2024-03-25T09:35:44;13.40;47.60
29431;DHT22;16404;49.902;10.074;2024-03-25T09:38:28;13.40;48.10
29431;DHT22;16404;49.902;10.074;2024-03-25T09:41:13;13.40;47.80
29431;DHT22;16404;49.902;10.074;2024-03-25T09:43:58;13.40;47.50
29431;DHT22;16404;49.902;10.074;2024-03-25T09:46:44;13.40;47.50
29431;DHT22;16404;49.902;10.074;2024-03-25T09:49:29;13.40;47.60
29431;DHT22;16404;49.902;10.074;2024-03-25T09:52:18;13.40;47.30
29431;DHT22;16404;49.902;10.074;2024-03-25T09:55:04;13.40;46.90
29431;DHT22;16404;49.902;10.074;2024-03-25T09:57:50;13.70;46.00
29431;DHT22;16404;49.902;10.074;2024-03-25T10:00:35;14.00;45.20
29431;DHT22;16404;49.902;10.074;2024-03-25T10:03:20;14.30;45.80
29431;DHT22;16404;49.902;10.074;2024-03-25T10:06:04;14.50;45.40
29431;DHT22;16404;49.902;10.074;2024-03-25T10:08:53;14.70;45.00
29431;DHT22;16404;49.902;10.074;2024-03-25T10:11:37;14.90;44.00
29431;DHT22;16404;49.902;10.074;2024-03-25T10:14:22;15.10;43.70
29431;DHT22;16404;49.902;10.074;2024-03-25T10:17:07;15.30;43.90
29431;DHT22;16404;49.902;10.074;2024-03-25T10:19:54;15.60;43.10
29431;DHT22;16404;49.902;10.074;2024-03-25T10:22:45;15.70;42.30
29431;DHT22;16404;49.902;10.074;2024-03-25T10:25:31;15.80;41.40
29431;DHT22;16404;49.902;10.074;2024-03-25T10:28:15;16.00;41.20
29431;DHT22;16404;49.902;10.074;2024-03-25T10:31:03;16.10;40.60
29431;DHT22;16404;49.902;10.074;2024-03-25T10:33:48;16.00;39.90
29431;DHT22;16404;49.902;10.074;2024-03-25T10:36:33;15.90;39.80
29431;DHT22;16404;49.902;10.074;2024-03-25T10:39:19;16.00;39.20
29431;DHT22;16404;49.902;10.074;2024-03-25T10:42:05;16.00;38.90
29431;DHT22;16404;49.902;10.074;2024-03-25T10:44:49;16.10;39.50
29431;DHT22;16404;49.902;10.074;2024-03-25T10:47:37;16.10;39.70
29431;DHT22;16404;49.902;10.074;2024-03-25T10:50:28;15.90;39.70
29431;DHT22;16404;49.902;10.074;2024-03-25T10:53:18;15.90;39.60
29431;DHT22;16404;49.902;10.074;2024-03-25T10:56:03;16.00;39.00
29431;DHT22;16404;49.902;10.074;2024-03-25T10:58:49;15.90;38.90
29431;DHT22;16404;49.902;10.074;2024-03-25T11:01:35;16.00;39.40
29431;DHT22;16404;49.902;10.074;2024-03-25T11:04:24;16.10;39.90
29431;DHT22;16404;49.902;10.074;2024-03-25T11:07:13;16.10;39.90
29431;DHT22;16404;49.902;10.074;2024-03-25T11:10:05;16.10;40.10
29431;DHT22;16404;49.902;10.074;2024-03-25T11:12:52;16.10;40.00
29431;DHT22;16404;49.902;10.074;2024-03-25T11:15:41;16.20;40.00
29431;DHT22;16404;49.902;10.074;2024-03-25T11:18:29;16.20;40.20
29431;DHT22;16404;49.902;10.074;2024-03-25T11:21:24;16.20;40.00
29431;DHT22;16404;49.902;10.074;2024-03-25T11:24:09;16.20;39.10
29431;DHT22;16404;49.902;10.074;2024-03-25T11:26:55;16.30;40.20
29431;DHT22;16404;49.902;10.074;2024-03-25T11:29:39;16.30;40.40
29431;DHT22;16404;49.902;10.074;2024-03-25T11:32:25;16.30;40.20
29431;DHT22;16404;49.902;10.074;2024-03-25T11:35:11;16.40;40.40
29431;DHT22;16404;49.902;10.074;2024-03-25T11:37:55;16.40;40.00
29431;DHT22;16404;49.902;10.074;2024-03-25T11:40:43;16.40;39.70
29431;DHT22;16404;49.902;10.074;2024-03-25T11:43:28;16.40;39.30
29431;DHT22;16404;49.902;10.074;2024-03-25T11:46:17;16.40;39.10
29431;DHT22;16404;49.902;10.074;2024-03-25T11:49:02;16.30;39.20
29431;DHT22;16404;49.902;10.074;2024-03-25T11:51:46;16.30;39.40
29431;DHT22;16404;49.902;10.074;2024-03-25T11:54:31;16.20;40.00
29431;DHT22;16404;49.902;10.074;2024-03-25T11:57:15;16.20;39.40
29431;DHT22;16404;49.902;10.074;2024-03-25T12:00:00;16.30;39.50
29431;DHT22;16404;49.902;10.074;2024-03-25T12:02:45;16.40;39.20
29431;DHT22;16404;49.902;10.074;2024-03-25T12:05:31;16.50;39.20
29431;DHT22;16404;49.902;10.074;2024-03-25T12:08:16;16.50;39.00
29431;DHT22;16404;49.902;10.074;2024-03-25T12:11:01;16.40;38.90
29431;DHT22;16404;49.902;10.074;2024-03-25T12:14:01;16.40;39.50
29431;DHT22;16404;49.902;10.074;2024-03-25T12:16:46;16.30;38.90
29431;DHT22;16404;49.902;10.074;2024-03-25T12:19:32;16.30;39.20
29431;DHT22;16404;49.902;10.074;2024-03-25T12:22:17;16.20;38.20
29431;DHT22;16404;49.902;10.074;2024-03-25T12:25:03;16.20;38.50
29431;DHT22;16404;49.902;10.074;2024-03-25T12:27:50;16.20;38.30
29431;DHT22;16404;49.902;10.074;2024-03-25T12:30:55;16.10;38.50
29431;DHT22;16404;49.902;10.074;2024-03-25T12:33:43;16.10;38.40
29431;DHT22;16404;49.902;10.074;2024-03-25T12:36:28;16.20;39.00
29431;DHT22;16404;49.902;10.074;2024-03-25T12:39:20;16.20;39.40
29431;DHT22;16404;49.902;10.074;2024-03-25T12:42:05;16.10;40.20
29431;DHT22;16404;49.902;10.074;2024-03-25T12:44:49;16.00;39.60
29431;DHT22;16404;49.902;10.074;2024-03-25T12:47:34;16.00;39.20
29431;DHT22;16404;49.902;10.074;2024-03-25T12:50:19;16.10;39.30
29431;DHT22;16404;49.902;10.074;2024-03-25T12:53:05;16.00;39.20
29431;DHT22;16404;49.902;10.074;2024-03-25T12:55:50;15.90;39.00
29431;DHT22;16404;49.902;10.074;2024-03-25T12:58:34;16.00;39.30
29431;DHT22;16404;49.902;10.074;2024-03-25T13:01:19;15.90;39.40
29431;DHT22;16404;49.902;10.074;2024-03-25T13:04:04;15.80;39.60
29431;DHT22;16404;49.902;10.074;2024-03-25T13:06:48;15.70;39.60
29431;DHT22;16404;49.902;10.074;2024-03-25T13:09:33;15.60;39.40
29431;DHT22;16404;49.902;10.074;2024-03-25T13:12:17;15.60;39.20
29431;DHT22;16404;49.902;10.074;2024-03-25T13:15:02;15.70;39.10
29431;DHT22;16404;49.902;10.074;2024-03-25T13:17:48;15.60;38.90
29431;DHT22;16404;49.902;10.074;2024-03-25T13:20:32;15.50;39.40
29431;DHT22;16404;49.902;10.074;2024-03-25T13:23:17;15.40;39.60
29431;DHT22;16404;49.902;10.074;2024-03-25T13:26:02;15.40;39.50
29431;DHT22;16404;49.902;10.074;2024-03-25T13:28:47;15.40;39.50
29431;DHT22;16404;49.902;10.074;2024-03-25T13:31:31;15.40;39.20
29431;DHT22;16404;49.902;10.074;2024-03-25T13:34:16;15.40;39.10
29431;DHT22;16404;49.902;10.074;2024-03-25T13:37:00;15.40;38.70
29431;DHT22;16404;49.902;10.074;2024-03-25T13:39:45;15.40;38.80
29431;DHT22;16404;49.902;10.074;2024-03-25T13:42:30;15.30;39.00
29431;DHT22;16404;49.902;10.074;2024-03-25T13:45:14;15.30;38.70
29431;DHT22;16404;49.902;10.074;2024-03-25T13:47:59;15.30;38.60
29431;DHT22;16404;49.902;10.074;2024-03-25T13:50:44;15.30;38.70
29431;DHT22;16404;49.902;10.074;2024-03-25T13:53:32;15.30;39.20
29431;DHT22;16404;49.902;10.074;2024-03-25T13:56:16;15.20;40.40
29431;DHT22;16404;49.902;10.074;2024-03-25T13:59:01;15.10;39.70
29431;DHT22;16404;49.902;10.074;2024-03-25T14:01:46;15.10;39.70
29431;DHT22;16404;49.902;10.074;2024-03-25T14:04:30;15.10;39.60
29431;DHT22;16404;49.902;10.074;2024-03-25T14:07:15;15.10;39.80
29431;DHT22;16404;49.902;10.074;2024-03-25T14:10:00;15.10;40.20
29431;DHT22;16404;49.902;10.074;2024-03-25T14:12:44;15.20;40.70
29431;DHT22;16404;49.902;10.074;2024-03-25T14:15:29;15.20;39.50
29431;DHT22;16404;49.902;10.074;2024-03-25T14:18:13;15.20;39.10
29431;DHT22;16404;49.902;10.074;2024-03-25T14:20:58;15.20;39.00
29431;DHT22;16404;49.902;10.074;2024-03-25T14:23:43;15.30;39.30
29431;DHT22;16404;49.902;10.074;2024-03-25T14:26:27;15.30;39.40
29431;DHT22;16404;49.902;10.074;2024-03-25T14:29:12;15.30;39.40
29431;DHT22;16404;49.902;10.074;2024-03-25T14:31:56;15.40;39.40
29431;DHT22;16404;49.902;10.074;2024-03-25T14:34:41;15.40;39.10
29431;DHT22;16404;49.902;10.074;2024-03-25T14:37:26;15.40;39.00
29431;DHT22;16404;49.902;10.074;2024-03-25T14:40:10;15.40;39.00
29431;DHT22;16404;49.902;10.074;2024-03-25T14:42:57;15.40;38.90
29431;DHT22;16404;49.902;10.074;2024-03-25T14:45:42;15.30;38.90
29431;DHT22;16404;49.902;10.074;2024-03-25T14:48:26;15.30;38.60
29431;DHT22;16404;49.902;10.074;2024-03-25T14:51:11;15.30;38.70
29431;DHT22;16404;49.902;10.074;2024-03-25T14:53:55;15.30;38.20
29431;DHT22;16404;49.902;10.074;2024-03-25T14:56:40;15.20;38.00
29431;DHT22;16404;49.902;10.074;2024-03-25T14:59:25;15.20;38.40
29431;DHT22;16404;49.902;10.074;2024-03-25T15:02:09;15.10;38.70
29431;DHT22;16404;49.902;10.074;2024-03-25T15:04:57;15.00;38.80
29431;DHT22;16404;49.902;10.074;2024-03-25T15:07:41;15.00;38.60
29431;DHT22;16404;49.902;10.074;2024-03-25T15:10:26;14.90;38.60
29431;DHT22;16404;49.902;10.074;2024-03-25T15:13:10;14.80;38.80
29431;DHT22;16404;49.902;10.074;2024-03-25T15:15:55;14.80;38.70
29431;DHT22;16404;49.902;10.074;2024-03-25T15:18:39;14.70;38.90
29431;DHT22;16404;49.902;10.074;2024-03-25T15:21:24;14.60;39.30
29431;DHT22;16404;49.902;10.074;2024-03-25T15:24:09;14.50;39.40
29431;DHT22;16404;49.902;10.074;2024-03-25T15:26:53;14.50;39.30
29431;DHT22;16404;49.902;10.074;2024-03-25T15:29:38;14.50;38.60
29431;DHT22;16404;49.902;10.074;2024-03-25T15:32:23;14.50;38.60
29431;DHT22;16404;49.902;10.074;2024-03-25T15:35:07;14.50;38.60
29431;DHT22;16404;49.902;10.074;2024-03-25T15:37:52;14.50;38.60
29431;DHT22;16404;49.902;10.074;2024-03-25T15:40:37;14.50;38.80
29431;DHT22;16404;49.902;10.074;2024-03-25T15:43:21;14.50;39.10
29431;DHT22;16404;49.902;10.074;2024-03-25T15:46:07;14.40;39.10
29431;DHT22;16404;49.902;10.074;2024-03-25T15:48:51;14.40;39.00
29431;DHT22;16404;49.902;10.074;2024-03-25T15:51:36;14.30;39.00
29431;DHT22;16404;49.902;10.074;2024-03-25T15:54:21;14.30;38.80
29431;DHT22;16404;49.902;10.074;2024-03-25T15:57:05;14.30;39.10
29431;DHT22;16404;49.902;10.074;2024-03-25T15:59:50;14.20;39.10
29431;DHT22;16404;49.902;10.074;2024-03-25T16:02:34;14.20;38.90
29431;DHT22;16404;49.902;10.074;2024-03-25T16:05:19;14.20;38.40
29431;DHT22;16404;49.902;10.074;2024-03-25T16:08:04;14.20;38.20
29431;DHT22;16404;49.902;10.074;2024-03-25T16:10:49;14.20;37.80
29431;DHT22;16404;49.902;10.074;2024-03-25T16:13:33;14.20;37.70
29431;DHT22;16404;49.902;10.074;2024-03-25T16:16:18;14.10;37.60
29431;DHT22;16404;49.902;10.074;2024-03-25T16:19:02;14.10;37.30
29431;DHT22;16404;49.902;10.074;2024-03-25T16:21:49;14.10;37.40
29431;DHT22;16404;49.902;10.074;2024-03-25T16:24:34;14.00;37.50
29431;DHT22;16404;49.902;10.074;2024-03-25T16:27:19;14.00;37.80
29431;DHT22;16404;49.902;10.074;2024-03-25T16:30:05;14.00;38.10
29431;DHT22;16404;49.902;10.074;2024-03-25T16:32:49;13.90;38.30
29431;DHT22;16404;49.902;10.074;2024-03-25T16:35:35;13.90;38.50
29431;DHT22;16404;49.902;10.074;2024-03-25T16:38:20;13.90;38.50
29431;DHT22;16404;49.902;10.074;2024-03-25T16:41:04;13.90;39.10
29431;DHT22;16404;49.902;10.074;2024-03-25T16:43:49;13.90;38.70
29431;DHT22;16404;49.902;10.074;2024-03-25T16:46:33;13.90;38.70
29431;DHT22;16404;49.902;10.074;2024-03-25T16:49:18;13.90;38.90
29431;DHT22;16404;49.902;10.074;2024-03-25T16:52:03;13.80;39.00
29431;DHT22;16404;49.902;10.074;2024-03-25T16:54:47;13.80;39.00
29431;DHT22;16404;49.902;10.074;2024-03-25T16:57:32;13.80;39.30
29431;DHT22;16404;49.902;10.074;2024-03-25T17:00:17;13.70;39.50
29431;DHT22;16404;49.902;10.074;2024-03-25T17:03:01;13.70;39.60
29431;DHT22;16404;49.902;10.074;2024-03-25T17:05:49;13.60;39.80
29431;DHT22;16404;49.902;10.074;2024-03-25T17:08:34;13.60;40.00
29431;DHT22;16404;49.902;10.074;2024-03-25T17:11:19;13.60;40.00
29431;DHT22;16404;49.902;10.074;2024-03-25T17:14:05;13.60;40.20